Time;durP1;ratioP1;P1;durP2;ratioP2;P2;SDS_P1;SDS_P2;PMS_P1;PMS_P2;Temp;Humidity;BMP_temperature;BMP_pressure;BME280_temperature;BME280_humidity;BME280_pressure;Samples;Min_cycle;Max_cycle;Signal;HPM_P1;HPM_P2
2021/03/04 00:02:00;;;;;;;;;;;11.60;49.60;;;;;;6249322;23;19938;-82
2021/03/04 00:04:26;;;;;;;;;;;11.60;49.70;;;;;;6248564;22;19911;-82
2021/03/04 00:06:52;;;;;;;;;;;11.50;49.60;;;;;;6247865;23;19907;-82
2021/03/04 00:09:17;;;;;;;;;;;11.50;49.80;;;;;;6250346;22;20284;-82
2021/03/04 00:11:43;;;;;;;;;;;11.40;50.10;;;;;;6248620;23;19912;-83
2021/03/04 00:14:08;;;;;;;;;;;11.40;50.30;;;;;;6246899;23;19904;-81
2021/03/04 00:16:34;;;;;;;;;;;11.40;50.40;;;;;;6249736;23;19911;-82
2021/03/04 00:18:59;;;;;;;;;;;11.40;50.50;;;;;;6246907;23;20326;-82
2021/03/04 00:21:25;;;;;;;;;;;11.40;50.50;;;;;;6248532;23;19907;-82
2021/03/04 00:23:50;;;;;;;;;;;11.40;50.50;;;;;;6249922;23;19911;-82
2021/03/04 00:26:15;;;;;;;;;;;11.40;50.60;;;;;;6250257;23;19986;-82
2021/03/04 00:28:41;;;;;;;;;;;11.40;50.60;;;;;;6251525;23;19904;-82
2021/03/04 00:31:06;;;;;;;;;;;11.40;50.60;;;;;;6252206;23;19903;-82
2021/03/04 00:33:32;;;;;;;;;;;11.30;50.60;;;;;;6276010;22;19975;-82
2021/03/04 00:35:57;;;;;;;;;;;11.40;50.70;;;;;;6249910;23;19900;-82
2021/03/04 00:38:23;;;;;;;;;;;11.40;50.70;;;;;;6252061;23;19904;-82
2021/03/04 00:40:49;;;;;;;;;;;11.40;50.70;;;;;;6250635;22;20037;-80
2021/03/04 00:43:14;;;;;;;;;;;11.40;50.80;;;;;;6251523;23;20018;-82
2021/03/04 00:45:39;;;;;;;;;;;11.30;50.80;;;;;;6250894;23;20085;-82
2021/03/04 00:48:06;;;;;;;;;;;11.40;51.00;;;;;;6249949;23;19907;-82
2021/03/04 00:50:31;;;;;;;;;;;11.40;50.90;;;;;;6251880;22;20246;-83
2021/03/04 00:52:57;;;;;;;;;;;11.30;50.90;;;;;;6249459;23;19904;-82
2021/03/04 00:55:22;;;;;;;;;;;11.30;51.00;;;;;;6249884;23;19907;-82
2021/03/04 00:57:48;;;;;;;;;;;11.20;51.00;;;;;;6251264;23;19927;-82
2021/03/04 01:00:14;;;;;;;;;;;11.30;51.00;;;;;;6250614;23;19914;-82
2021/03/04 01:02:39;;;;;;;;;;;11.30;51.00;;;;;;6250425;23;19904;-82
2021/03/04 01:05:05;;;;;;;;;;;11.30;51.00;;;;;;6249441;23;20455;-81
2021/03/04 01:07:30;;;;;;;;;;;11.30;51.10;;;;;;6252212;22;20392;-82
2021/03/04 01:09:56;;;;;;;;;;;11.20;51.10;;;;;;6251416;22;19935;-81
2021/03/04 01:12:21;;;;;;;;;;;11.30;51.20;;;;;;6248931;23;19908;-82
2021/03/04 01:14:47;;;;;;;;;;;11.20;51.20;;;;;;6249890;22;19908;-82
2021/03/04 01:17:13;;;;;;;;;;;11.20;51.20;;;;;;6249681;23;19903;-81
2021/03/04 01:19:38;;;;;;;;;;;11.20;51.30;;;;;;6251558;22;20323;-82
2021/03/04 01:22:04;;;;;;;;;;;11.20;51.40;;;;;;6250932;23;20357;-82
2021/03/04 01:24:29;;;;;;;;;;;11.20;51.40;;;;;;6250175;22;19926;-82
2021/03/04 01:26:54;;;;;;;;;;;11.10;51.50;;;;;;6251433;23;19908;-82
2021/03/04 01:29:20;;;;;;;;;;;11.10;51.60;;;;;;6251207;23;19904;-80
2021/03/04 01:31:48;;;;;;;;;;;11.10;51.70;;;;;;6251994;22;20330;-82
2021/03/04 01:34:14;;;;;;;;;;;11.10;51.70;;;;;;6250543;23;19914;-82
2021/03/04 01:36:39;;;;;;;;;;;11.00;51.70;;;;;;6251000;23;19904;-82
2021/03/04 01:39:05;;;;;;;;;;;11.00;51.80;;;;;;6251616;23;19950;-82
2021/03/04 01:41:31;;;;;;;;;;;10.90;51.80;;;;;;6250542;22;19931;-82
2021/03/04 01:43:56;;;;;;;;;;;10.90;51.90;;;;;;6252719;23;19908;-80
2021/03/04 01:46:22;;;;;;;;;;;10.90;51.90;;;;;;6250520;22;19933;-81
2021/03/04 01:48:47;;;;;;;;;;;10.80;51.90;;;;;;6255283;22;19923;-81
2021/03/04 01:51:13;;;;;;;;;;;10.80;52.00;;;;;;6254499;23;20245;-82
2021/03/04 01:53:38;;;;;;;;;;;10.70;52.00;;;;;;6251017;23;20323;-82
2021/03/04 01:56:04;;;;;;;;;;;10.70;52.00;;;;;;6249908;23;20285;-82
2021/03/04 01:58:30;;;;;;;;;;;10.70;52.00;;;;;;6246585;23;19908;-82
2021/03/04 02:00:56;;;;;;;;;;;10.60;52.00;;;;;;6249771;22;19904;-82
2021/03/04 02:03:23;;;;;;;;;;;10.60;52.70;;;;;;6247675;22;20034;-81
2021/03/04 02:05:49;;;;;;;;;;;10.60;52.80;;;;;;6251608;22;19918;-82
2021/03/04 02:08:24;;;;;;;;;;;10.60;52.30;;;;;;6250520;23;19907;-82
2021/03/04 02:10:52;;;;;;;;;;;10.60;52.40;;;;;;6251140;22;20481;-81
2021/03/04 02:13:23;;;;;;;;;;;10.60;52.40;;;;;;6250290;22;19907;-81
2021/03/04 02:15:59;;;;;;;;;;;10.50;52.30;;;;;;6248545;22;19934;-82
2021/03/04 02:18:26;;;;;;;;;;;10.50;52.40;;;;;;6250955;22;19911;-82
2021/03/04 02:21:00;;;;;;;;;;;10.50;52.50;;;;;;6249507;22;19910;-82
2021/03/04 02:23:32;;;;;;;;;;;10.40;52.50;;;;;;6251423;23;19949;-82
2021/03/04 02:26:18;;;;;;;;;;;10.40;52.70;;;;;;6248877;23;19955;-82
2021/03/04 02:28:46;;;;;;;;;;;10.40;52.80;;;;;;6249218;23;19908;-82
2021/03/04 02:31:12;;;;;;;;;;;10.30;52.80;;;;;;6249579;22;19949;-81
2021/03/04 02:33:38;;;;;;;;;;;10.30;52.80;;;;;;6249780;22;19904;-82
2021/03/04 02:36:04;;;;;;;;;;;10.30;52.80;;;;;;6249804;23;19934;-81
2021/03/04 02:38:30;;;;;;;;;;;10.30;52.90;;;;;;6249546;22;19939;-81
2021/03/04 02:40:57;;;;;;;;;;;10.20;52.80;;;;;;6249342;23;19919;-82
2021/03/04 02:43:23;;;;;;;;;;;10.10;52.90;;;;;;6248898;22;19978;-81
2021/03/04 02:45:49;;;;;;;;;;;10.10;52.90;;;;;;6249374;22;19955;-82
2021/03/04 02:48:15;;;;;;;;;;;10.00;52.90;;;;;;6249612;22;19907;-82
2021/03/04 02:50:42;;;;;;;;;;;10.00;52.90;;;;;;6247066;23;19904;-82
2021/03/04 02:53:08;;;;;;;;;;;9.80;53.80;;;;;;6251241;22;19903;-81
2021/03/04 02:55:34;;;;;;;;;;;9.60;53.80;;;;;;6247208;22;19915;-79
2021/03/04 02:58:00;;;;;;;;;;;9.60;54.10;;;;;;6251245;22;19947;-82
2021/03/04 03:00:27;;;;;;;;;;;9.50;54.10;;;;;;6249585;22;19914;-82
2021/03/04 03:02:54;;;;;;;;;;;9.40;54.20;;;;;;6247164;23;19942;-82
2021/03/04 03:05:21;;;;;;;;;;;9.30;54.40;;;;;;6249180;22;19918;-82
2021/03/04 03:07:47;;;;;;;;;;;9.30;54.50;;;;;;6248860;22;19908;-82
2021/03/04 03:10:14;;;;;;;;;;;9.20;54.60;;;;;;6249363;23;19915;-82
2021/03/04 03:12:41;;;;;;;;;;;9.30;54.70;;;;;;6248311;22;19904;-82
2021/03/04 03:15:07;;;;;;;;;;;9.30;54.80;;;;;;6249107;22;19911;-81
2021/03/04 03:17:33;;;;;;;;;;;9.30;54.80;;;;;;6249708;22;19912;-82
2021/03/04 03:19:59;;;;;;;;;;;9.20;54.90;;;;;;6250517;23;20394;-82
2021/03/04 03:22:24;;;;;;;;;;;9.30;55.00;;;;;;6249809;23;19904;-82
2021/03/04 03:24:50;;;;;;;;;;;9.20;55.00;;;;;;6247541;23;20049;-81
2021/03/04 03:27:15;;;;;;;;;;;9.30;55.10;;;;;;6250010;23;19942;-81
2021/03/04 03:29:41;;;;;;;;;;;9.20;55.20;;;;;;6249507;23;19927;-82
2021/03/04 03:32:07;;;;;;;;;;;9.30;55.40;;;;;;6248201;22;19927;-82
2021/03/04 03:34:33;;;;;;;;;;;9.30;55.30;;;;;;6249403;22;19908;-82
2021/03/04 03:36:58;;;;;;;;;;;9.40;55.30;;;;;;6248785;23;19904;-81
2021/03/04 03:39:24;;;;;;;;;;;9.50;55.40;;;;;;6252865;23;20289;-82
2021/03/04 03:41:49;;;;;;;;;;;9.50;55.50;;;;;;6248839;22;19904;-81
2021/03/04 03:44:15;;;;;;;;;;;9.50;55.50;;;;;;6248563;23;19919;-81
2021/03/04 03:46:41;;;;;;;;;;;9.60;55.60;;;;;;6249015;22;19907;-82
2021/03/04 03:49:07;;;;;;;;;;;9.60;55.60;;;;;;6249660;22;19946;-81
2021/03/04 03:51:34;;;;;;;;;;;9.60;55.70;;;;;;6248241;23;20387;-82
2021/03/04 03:54:01;;;;;;;;;;;9.70;55.80;;;;;;6249006;22;19954;-79
2021/03/04 03:56:27;;;;;;;;;;;9.70;55.90;;;;;;6250607;22;19904;-82
2021/03/04 03:58:53;;;;;;;;;;;9.70;55.80;;;;;;6248183;22;19911;-81
2021/03/04 04:01:19;;;;;;;;;;;9.60;56.40;;;;;;6248754;22;19903;-83
2021/03/04 04:03:44;;;;;;;;;;;9.60;55.90;;;;;;6249116;23;19923;-82
2021/03/04 04:06:10;;;;;;;;;;;9.50;56.50;;;;;;6246404;23;19915;-82
2021/03/04 04:08:35;;;;;;;;;;;9.50;56.00;;;;;;6250633;23;19908;-82
2021/03/04 04:11:01;;;;;;;;;;;9.40;56.10;;;;;;6249344;22;19910;-82
2021/03/04 04:13:26;;;;;;;;;;;9.30;56.40;;;;;;6250091;23;19986;-82
2021/03/04 04:15:52;;;;;;;;;;;9.20;56.60;;;;;;6277317;22;19904;-82
2021/03/04 04:18:18;;;;;;;;;;;9.20;56.70;;;;;;6252099;23;19911;-82
2021/03/04 04:20:43;;;;;;;;;;;9.30;56.80;;;;;;6249123;22;19930;-82
2021/03/04 04:23:12;;;;;;;;;;;9.30;56.80;;;;;;6248150;22;20469;-82
2021/03/04 04:25:42;;;;;;;;;;;9.40;56.80;;;;;;6249823;22;19911;-82
2021/03/04 04:28:07;;;;;;;;;;;9.40;56.80;;;;;;6245961;23;19980;-81
2021/03/04 04:30:32;;;;;;;;;;;9.50;56.90;;;;;;6250244;23;19939;-82
2021/03/04 04:32:58;;;;;;;;;;;9.50;56.90;;;;;;6249055;23;19904;-82
2021/03/04 04:35:23;;;;;;;;;;;9.60;57.00;;;;;;6248192;23;19910;-82
2021/03/04 04:37:49;;;;;;;;;;;9.60;57.00;;;;;;6247796;23;19903;-82
2021/03/04 04:40:14;;;;;;;;;;;9.60;57.10;;;;;;6248713;23;20299;-82
2021/03/04 04:42:40;;;;;;;;;;;9.60;57.10;;;;;;6248958;23;19963;-82
2021/03/04 04:45:08;;;;;;;;;;;9.60;57.10;;;;;;6247777;23;19904;-81
2021/03/04 04:47:33;;;;;;;;;;;9.60;57.10;;;;;;6249126;22;19999;-82
2021/03/04 04:49:59;;;;;;;;;;;9.50;57.20;;;;;;6249337;22;19904;-82
2021/03/04 04:52:24;;;;;;;;;;;9.50;57.20;;;;;;6247321;23;19903;-82
2021/03/04 04:54:50;;;;;;;;;;;9.40;57.30;;;;;;6248801;22;19910;-82
2021/03/04 04:57:15;;;;;;;;;;;9.40;57.50;;;;;;6248022;23;19943;-82
2021/03/04 04:59:41;;;;;;;;;;;9.40;57.60;;;;;;6249222;23;20219;-83
2021/03/04 05:02:06;;;;;;;;;;;9.40;57.60;;;;;;6249168;23;19927;-82
2021/03/04 05:04:32;;;;;;;;;;;9.40;57.70;;;;;;6247618;23;19904;-82
2021/03/04 05:06:57;;;;;;;;;;;9.40;57.80;;;;;;6249469;23;19903;-82
2021/03/04 05:09:22;;;;;;;;;;;9.40;58.00;;;;;;6248856;22;19912;-82
2021/03/04 05:11:48;;;;;;;;;;;9.50;58.10;;;;;;6249872;23;20024;-82
2021/03/04 05:14:13;;;;;;;;;;;9.50;58.10;;;;;;6251422;23;19908;-80
2021/03/04 05:16:39;;;;;;;;;;;9.60;58.20;;;;;;6251394;23;19961;-82
2021/03/04 05:19:05;;;;;;;;;;;9.60;58.20;;;;;;6250952;23;19947;-82
2021/03/04 05:21:30;;;;;;;;;;;9.60;58.30;;;;;;6250059;22;19911;-82
2021/03/04 05:23:56;;;;;;;;;;;9.60;58.30;;;;;;6251674;23;19904;-82
2021/03/04 05:26:21;;;;;;;;;;;9.60;58.40;;;;;;6248971;23;20038;-81
2021/03/04 05:28:46;;;;;;;;;;;9.60;58.40;;;;;;6249630;23;19910;-82
2021/03/04 05:31:12;;;;;;;;;;;9.60;58.30;;;;;;6249662;23;19911;-81
2021/03/04 05:33:37;;;;;;;;;;;9.60;58.50;;;;;;6249533;23;20322;-80
2021/03/04 05:36:03;;;;;;;;;;;9.40;59.40;;;;;;6249337;22;19914;-82
2021/03/04 05:38:28;;;;;;;;;;;9.20;59.90;;;;;;6250068;22;19977;-81
2021/03/04 05:40:54;;;;;;;;;;;9.10;61.00;;;;;;6250423;23;19908;-82
2021/03/04 05:43:20;;;;;;;;;;;9.00;61.90;;;;;;6251444;23;20289;-81
2021/03/04 05:45:47;;;;;;;;;;;8.90;62.60;;;;;;6249300;22;19911;-82
2021/03/04 05:48:14;;;;;;;;;;;8.80;63.40;;;;;;6252587;22;19918;-81
2021/03/04 05:50:46;;;;;;;;;;;8.70;64.60;;;;;;6250464;22;19900;-82
2021/03/04 05:53:15;;;;;;;;;;;8.60;65.60;;;;;;6250798;22;20318;-82
2021/03/04 05:55:43;;;;;;;;;;;8.60;66.10;;;;;;6250051;22;19904;-82
2021/03/04 05:58:09;;;;;;;;;;;8.60;66.50;;;;;;6251123;22;19969;-82
2021/03/04 06:00:35;;;;;;;;;;;8.60;66.80;;;;;;6249753;23;19978;-82
2021/03/04 06:03:01;;;;;;;;;;;8.60;66.90;;;;;;6249374;22;19911;-81
2021/03/04 06:05:27;;;;;;;;;;;8.60;67.10;;;;;;6250063;22;19912;-82
2021/03/04 06:07:52;;;;;;;;;;;8.70;67.30;;;;;;6248451;23;20250;-82
2021/03/04 06:10:18;;;;;;;;;;;8.70;67.30;;;;;;6250504;23;19908;-82
2021/03/04 06:12:43;;;;;;;;;;;8.70;67.30;;;;;;6250184;23;20345;-82
2021/03/04 06:15:13;;;;;;;;;;;8.70;67.30;;;;;;6248882;23;19904;-82
2021/03/04 06:17:39;;;;;;;;;;;8.70;67.50;;;;;;6250993;22;19955;-81
2021/03/04 06:20:06;;;;;;;;;;;8.70;67.80;;;;;;6250104;22;19978;-82
2021/03/04 06:22:35;;;;;;;;;;;8.70;67.80;;;;;;6251007;22;19954;-81
2021/03/04 06:25:05;;;;;;;;;;;8.70;68.00;;;;;;6249035;23;20375;-81
2021/03/04 06:27:31;;;;;;;;;;;8.70;68.10;;;;;;6250730;22;19907;-81
2021/03/04 06:30:01;;;;;;;;;;;8.70;68.40;;;;;;6250804;22;19927;-82
2021/03/04 06:32:27;;;;;;;;;;;8.70;68.60;;;;;;6250073;22;19904;-81
2021/03/04 06:35:05;;;;;;;;;;;8.70;68.70;;;;;;6249592;23;19915;-82
2021/03/04 06:37:31;;;;;;;;;;;8.70;68.80;;;;;;6252385;23;20231;-81
2021/03/04 06:39:56;;;;;;;;;;;8.70;68.80;;;;;;6249616;23;19990;-82
2021/03/04 06:42:25;;;;;;;;;;;8.70;69.00;;;;;;6254654;23;19907;-82
2021/03/04 06:44:50;;;;;;;;;;;8.80;69.20;;;;;;6251227;23;19904;-82
2021/03/04 06:47:26;;;;;;;;;;;8.90;69.30;;;;;;6249689;23;19908;-81
2021/03/04 06:49:54;;;;;;;;;;;8.90;69.50;;;;;;6248400;22;19992;-81
2021/03/04 06:52:23;;;;;;;;;;;9.00;69.60;;;;;;6248649;22;19914;-79
2021/03/04 06:54:50;;;;;;;;;;;9.00;69.70;;;;;;6246130;22;19907;-79
2021/03/04 06:57:15;;;;;;;;;;;9.00;70.00;;;;;;6248103;23;19903;-80
2021/03/04 06:59:42;;;;;;;;;;;9.10;70.30;;;;;;6249374;22;19904;-79
2021/03/04 07:02:07;;;;;;;;;;;9.10;70.50;;;;;;6247890;23;19964;-81
2021/03/04 07:04:33;;;;;;;;;;;9.10;70.70;;;;;;6248860;23;20342;-82
2021/03/04 07:06:59;;;;;;;;;;;9.10;70.80;;;;;;6249995;23;20350;-81
2021/03/04 07:09:25;;;;;;;;;;;9.10;71.00;;;;;;6251043;22;19903;-80
2021/03/04 07:11:50;;;;;;;;;;;9.10;71.10;;;;;;6248556;23;19904;-81
2021/03/04 07:14:16;;;;;;;;;;;9.10;71.20;;;;;;6248297;22;19914;-80
2021/03/04 07:16:45;;;;;;;;;;;9.20;71.40;;;;;;6248825;23;19987;-81
2021/03/04 07:19:11;;;;;;;;;;;9.10;71.60;;;;;;6247168;23;20274;-81
2021/03/04 07:21:39;;;;;;;;;;;9.10;71.70;;;;;;6249644;22;19903;-80
2021/03/04 07:24:05;;;;;;;;;;;9.10;71.90;;;;;;6245380;23;19910;-79
2021/03/04 07:26:30;;;;;;;;;;;9.10;72.20;;;;;;6248448;22;19931;-80
2021/03/04 07:28:56;;;;;;;;;;;9.10;72.40;;;;;;6248084;23;19903;-80
2021/03/04 07:31:24;;;;;;;;;;;9.10;72.60;;;;;;6250737;22;19904;-81
2021/03/04 07:33:51;;;;;;;;;;;9.10;72.70;;;;;;6248147;22;19976;-81
2021/03/04 07:36:22;;;;;;;;;;;9.10;72.80;;;;;;6249417;22;19903;-81
2021/03/04 07:38:58;;;;;;;;;;;9.10;72.80;;;;;;6245121;23;19948;-80
2021/03/04 07:41:34;;;;;;;;;;;9.20;73.10;;;;;;6249328;23;19903;-80
2021/03/04 07:55:51;;;;;;;;;;;9.20;72.60;;;;;;5149150;27;19916;-80
2021/03/04 07:58:17;;;;;;;;;;;9.60;73.70;;;;;;5128707;27;19915;-81
2021/03/04 08:00:42;;;;;;;;;;;9.60;73.70;;;;;;5134306;27;19931;-80
2021/03/04 08:03:08;;;;;;;;;;;9.50;73.70;;;;;;5138403;27;19922;-80
2021/03/04 08:05:34;;;;;;;;;;;9.50;73.80;;;;;;5141499;27;19911;-80
2021/03/04 08:08:13;;;;;;;;;;;9.40;74.00;;;;;;5134079;27;19919;-80
2021/03/04 08:10:49;;;;;;;;;;;9.40;74.50;;;;;;5125306;27;19930;-80
2021/03/04 08:13:15;;;;;;;;;;;9.40;74.80;;;;;;5133841;27;19911;-80
2021/03/04 08:15:43;;;;;;;;;;;9.40;75.00;;;;;;5125232;27;19916;-80
2021/03/04 08:18:22;;;;;;;;;;;9.40;75.30;;;;;;5138266;27;20377;-80
2021/03/04 08:20:48;;;;;;;;;;;9.40;75.50;;;;;;5132469;27;19912;-81
2021/03/04 08:23:17;;;;;;;;;;;9.50;75.90;;;;;;5147451;27;20323;-80
2021/03/04 08:25:43;;;;;;;;;;;9.60;76.10;;;;;;5143888;27;19937;-80
2021/03/04 08:28:09;;;;;;;;;;;9.70;76.20;;;;;;5140684;27;19926;-80
2021/03/04 08:30:37;;;;;;;;;;;9.80;76.20;;;;;;5140074;27;19914;-81
2021/03/04 08:33:05;;;;;;;;;;;10.00;75.00;;;;;;5129122;27;20293;-82
2021/03/04 08:35:33;;;;;;;;;;;10.10;75.10;;;;;;5133945;27;19932;-81
2021/03/04 08:38:01;;;;;;;;;;;10.20;76.00;;;;;;5136045;27;20308;-81
2021/03/04 08:40:26;;;;;;;;;;;10.20;75.30;;;;;;5148884;27;19918;-81
2021/03/04 08:42:52;;;;;;;;;;;10.20;75.30;;;;;;5132519;27;19912;-81
2021/03/04 08:45:30;;;;;;;;;;;10.20;75.60;;;;;;5144225;27;19911;-81
2021/03/04 08:47:56;;;;;;;;;;;10.20;75.90;;;;;;5143514;27;19911;-81
2021/03/04 08:50:30;;;;;;;;;;;10.10;76.10;;;;;;5123495;27;19934;-82
2021/03/04 08:52:56;;;;;;;;;;;10.00;76.60;;;;;;5144361;27;19919;-81
2021/03/04 08:55:22;;;;;;;;;;;9.90;78.20;;;;;;5120782;27;19916;-82
2021/03/04 08:57:47;;;;;;;;;;;9.80;78.70;;;;;;5121801;27;20328;-82
2021/03/04 09:00:13;;;;;;;;;;;9.70;79.10;;;;;;5126944;27;19927;-81
2021/03/04 09:02:38;;;;;;;;;;;9.70;79.60;;;;;;5124400;27;19908;-81
2021/03/04 09:05:05;;;;;;;;;;;9.70;79.90;;;;;;5123442;27;19916;-81
2021/03/04 09:07:31;;;;;;;;;;;9.60;80.10;;;;;;5108414;27;19938;-82
2021/03/04 09:09:57;;;;;;;;;;;9.60;80.50;;;;;;5103828;28;20358;-81
2021/03/04 09:12:23;;;;;;;;;;;9.60;80.90;;;;;;5113610;28;19919;-81
2021/03/04 09:14:53;;;;;;;;;;;9.70;81.20;;;;;;5119729;28;19915;-81
2021/03/04 09:17:18;;;;;;;;;;;9.70;81.50;;;;;;5123838;27;19907;-82
2021/03/04 09:19:51;;;;;;;;;;;9.70;81.80;;;;;;5108075;27;19919;-81
2021/03/04 09:22:16;;;;;;;;;;;9.70;81.90;;;;;;5120099;28;20434;-82
2021/03/04 09:24:44;;;;;;;;;;;9.80;82.10;;;;;;5109346;27;19923;-81
2021/03/04 09:27:11;;;;;;;;;;;9.80;82.20;;;;;;5138346;27;19918;-82
2021/03/04 09:29:40;;;;;;;;;;;9.90;82.40;;;;;;5131702;27;19918;-82
2021/03/04 09:32:06;;;;;;;;;;;10.00;81.40;;;;;;5115735;27;19915;-82
2021/03/04 09:34:44;;;;;;;;;;;10.00;81.30;;;;;;5139237;27;19908;-82
2021/03/04 09:37:26;;;;;;;;;;;10.10;81.60;;;;;;5111869;27;19912;-83
2021/03/04 09:39:52;;;;;;;;;;;10.10;81.90;;;;;;5117256;28;20401;-81
2021/03/04 09:42:31;;;;;;;;;;;10.10;82.30;;;;;;5112230;27;19912;-82
2021/03/04 09:44:57;;;;;;;;;;;10.00;82.60;;;;;;5135934;27;19919;-82
2021/03/04 09:47:23;;;;;;;;;;;10.10;83.00;;;;;;5118265;27;20014;-82
2021/03/04 09:49:49;;;;;;;;;;;10.10;83.10;;;;;;5112075;28;20409;-82
2021/03/04 09:52:20;;;;;;;;;;;10.10;83.40;;;;;;5119309;28;19916;-82
2021/03/04 09:54:45;;;;;;;;;;;10.10;83.50;;;;;;5107009;28;19961;-82
2021/03/04 09:57:14;;;;;;;;;;;10.20;83.80;;;;;;5099491;28;19908;-82
2021/03/04 09:59:46;;;;;;;;;;;10.20;83.80;;;;;;5097870;28;19908;-82
2021/03/04 10:02:12;;;;;;;;;;;10.30;84.10;;;;;;5099243;28;19971;-82
2021/03/04 10:04:37;;;;;;;;;;;10.30;84.30;;;;;;5105697;28;19916;-82
2021/03/04 10:07:12;;;;;;;;;;;10.30;84.50;;;;;;5118946;28;19908;-83
2021/03/04 10:09:37;;;;;;;;;;;10.40;84.80;;;;;;5118645;27;19912;-82
2021/03/04 10:12:03;;;;;;;;;;;10.40;84.90;;;;;;5109785;27;19919;-83
2021/03/04 10:14:28;;;;;;;;;;;10.50;84.90;;;;;;5117910;27;20388;-82
2021/03/04 10:16:54;;;;;;;;;;;10.40;85.00;;;;;;5119455;28;20413;-83
2021/03/04 10:19:20;;;;;;;;;;;10.40;85.30;;;;;;5118170;28;19975;-82
2021/03/04 10:21:45;;;;;;;;;;;10.50;85.60;;;;;;5119503;27;19911;-82
2021/03/04 10:24:13;;;;;;;;;;;10.50;85.50;;;;;;5118100;28;19911;-82
2021/03/04 10:26:38;;;;;;;;;;;10.40;85.60;;;;;;5109635;27;20008;-82
2021/03/04 10:29:04;;;;;;;;;;;10.40;85.90;;;;;;5119761;27;20350;-82
2021/03/04 10:31:29;;;;;;;;;;;10.40;87.00;;;;;;5128840;27;19915;-80
2021/03/04 10:33:55;;;;;;;;;;;10.30;86.50;;;;;;5104326;27;19916;-82
2021/03/04 10:36:20;;;;;;;;;;;10.30;87.00;;;;;;5112145;27;19937;-81
2021/03/04 10:38:45;;;;;;;;;;;10.30;87.40;;;;;;5107145;27;19911;-81
2021/03/04 10:41:11;;;;;;;;;;;10.30;87.70;;;;;;5117607;27;20017;-81
2021/03/04 10:43:36;;;;;;;;;;;10.20;88.10;;;;;;5101605;28;19923;-81
2021/03/04 10:46:02;;;;;;;;;;;10.10;88.40;;;;;;5120098;27;19911;-81
2021/03/04 10:48:27;;;;;;;;;;;10.10;88.90;;;;;;5110281;27;19919;-81
2021/03/04 10:50:53;;;;;;;;;;;10.10;89.30;;;;;;5129932;27;19998;-83
2021/03/04 10:53:18;;;;;;;;;;;10.00;89.60;;;;;;5119031;28;19908;-81
2021/03/04 10:55:44;;;;;;;;;;;9.90;90.50;;;;;;5118071;28;19946;-81
2021/03/04 10:58:09;;;;;;;;;;;9.90;90.80;;;;;;5115195;27;19947;-81
2021/03/04 11:00:35;;;;;;;;;;;9.80;90.90;;;;;;5119490;28;19912;-81
2021/03/04 11:03:00;;;;;;;;;;;9.80;91.10;;;;;;5116769;28;19942;-81
2021/03/04 11:05:26;;;;;;;;;;;9.70;91.30;;;;;;5109674;27;20365;-82
2021/03/04 11:07:51;;;;;;;;;;;9.70;91.50;;;;;;5114444;28;19944;-82
2021/03/04 11:10:17;;;;;;;;;;;9.60;91.60;;;;;;5117252;28;19954;-82
2021/03/04 11:12:42;;;;;;;;;;;9.60;91.80;;;;;;5105320;28;19912;-83
2021/03/04 11:15:08;;;;;;;;;;;9.50;91.90;;;;;;5110391;28;19912;-81
2021/03/04 11:17:34;;;;;;;;;;;9.50;92.10;;;;;;5117611;28;20366;-82
2021/03/04 11:19:59;;;;;;;;;;;9.40;92.10;;;;;;5107580;28;19940;-81
2021/03/04 11:22:25;;;;;;;;;;;9.40;92.20;;;;;;5110560;28;19911;-81
2021/03/04 11:24:50;;;;;;;;;;;9.40;92.30;;;;;;5107053;28;19916;-81
2021/03/04 11:27:16;;;;;;;;;;;9.40;92.40;;;;;;5107432;28;19934;-81
2021/03/04 11:29:42;;;;;;;;;;;9.40;92.50;;;;;;5097631;28;19912;-81
2021/03/04 11:32:07;;;;;;;;;;;9.40;92.70;;;;;;5103020;28;19916;-81
2021/03/04 11:34:33;;;;;;;;;;;9.40;92.80;;;;;;5120173;28;19908;-81
2021/03/04 11:36:58;;;;;;;;;;;9.40;92.90;;;;;;5108965;28;19920;-81
2021/03/04 11:39:24;;;;;;;;;;;9.30;92.90;;;;;;5106769;28;19912;-80
2021/03/04 11:41:49;;;;;;;;;;;9.30;93.10;;;;;;5111361;28;20411;-81
2021/03/04 11:44:17;;;;;;;;;;;9.30;93.10;;;;;;5115523;28;19937;-81
2021/03/04 11:46:42;;;;;;;;;;;9.30;93.30;;;;;;5116190;28;19912;-81
2021/03/04 11:49:08;;;;;;;;;;;9.30;93.40;;;;;;5115898;28;21863;-81
2021/03/04 11:51:34;;;;;;;;;;;9.30;93.40;;;;;;5104491;28;20407;-81
2021/03/04 11:53:59;;;;;;;;;;;9.30;93.50;;;;;;5098200;28;19916;-81
2021/03/04 11:56:27;;;;;;;;;;;9.40;93.70;;;;;;5100144;28;19923;-81
2021/03/04 11:58:53;;;;;;;;;;;9.40;93.70;;;;;;5114604;28;19908;-81
2021/03/04 12:01:19;;;;;;;;;;;9.40;93.80;;;;;;5115198;28;20266;-81
2021/03/04 12:03:44;;;;;;;;;;;9.50;93.90;;;;;;5116046;28;20362;-81
2021/03/04 12:06:10;;;;;;;;;;;9.50;93.90;;;;;;5111738;28;19919;-81
2021/03/04 12:08:35;;;;;;;;;;;9.60;94.40;;;;;;5106789;28;19916;-81
2021/03/04 16:44:24;;;;;;;;;;;;;;;;;;;;;
2021/03/04 16:52:53;;;;;;;;;;;7.10;99.90;;;;;;5092589;28;19912;-81
2021/03/04 17:01:46;;;;;;;;;;;7.00;99.90;;;;;;5073456;28;19916;-81
2021/03/04 17:16:38;;;;;;;;;;;7.00;99.90;;;;;;5067232;28;19924;-81
2021/03/04 17:28:32;;;;;;;;;;;;;;;;;;;;;
2021/03/04 17:34:26;;;;;;;;;;;6.90;99.90;;;;;;5062468;28;20328;-80
2021/03/04 17:37:08;;;;;;;;;;;;;;;;;;;;;
2021/03/04 17:40:02;;;;;;;;;;;6.80;99.90;;;;;;5079842;28;20022;-81
2021/03/04 17:54:53;;;;;;;;;;;6.70;99.90;;;;;;5080591;28;19916;-81
2021/03/04 17:57:38;;;;;;;;;;;;;;;;;;;;;
2021/03/04 18:00:22;;;;;;;;;;;6.60;99.90;;;;;;5093193;28;19984;-81
2021/03/04 18:02:51;;;;;;;;;;;6.60;99.90;;;;;;5095364;28;19924;-80
2021/03/04 18:05:16;;;;;;;;;;;6.50;99.90;;;;;;5069137;28;19921;-81
2021/03/04 18:07:44;;;;;;;;;;;6.50;99.90;;;;;;5070222;28;19934;-80
2021/03/04 18:10:12;;;;;;;;;;;6.40;99.90;;;;;;5089062;28;19919;-79
2021/03/04 18:18:29;;;;;;;;;;;6.30;99.90;;;;;;5035690;28;19928;-81
2021/03/04 18:27:26;;;;;;;;;;;6.20;99.90;;;;;;5029201;28;20263;-81
2021/03/04 18:30:31;;;;;;;;;;;;;;;;;;;;;
2021/03/04 18:33:25;;;;;;;;;;;6.10;99.90;;;;;;5026650;28;19913;-81
2021/03/04 18:36:14;;;;;;;;;;;6.10;99.90;;;;;;5011409;28;20382;-82
2021/03/04 18:47:38;;;;;;;;;;;5.90;99.90;;;;;;5026801;28;19913;-81
2021/03/04 18:50:04;;;;;;;;;;;5.90;99.90;;;;;;5027043;28;19921;-82
2021/03/04 18:52:30;;;;;;;;;;;5.90;99.90;;;;;;5032388;28;19913;-81
2021/03/04 18:54:55;;;;;;;;;;;5.80;99.90;;;;;;5018508;28;19913;-81
2021/03/04 18:57:20;;;;;;;;;;;5.80;99.90;;;;;;5030895;28;19921;-80
2021/03/04 18:59:46;;;;;;;;;;;5.80;99.90;;;;;;5034193;28;19920;-80
2021/03/04 19:02:11;;;;;;;;;;;5.80;99.90;;;;;;5033677;28;19920;-80
2021/03/04 19:04:39;;;;;;;;;;;5.80;99.90;;;;;;5031383;28;19913;-80
2021/03/04 19:07:05;;;;;;;;;;;5.80;99.90;;;;;;5034968;28;19963;-81
2021/03/04 19:09:30;;;;;;;;;;;5.70;99.90;;;;;;5032904;28;19921;-80
2021/03/04 19:11:56;;;;;;;;;;;5.70;99.90;;;;;;5035242;28;19913;-80
2021/03/04 19:14:21;;;;;;;;;;;5.70;99.90;;;;;;5019490;28;19918;-80
2021/03/04 19:16:47;;;;;;;;;;;5.70;99.90;;;;;;5047014;28;19913;-81
2021/03/04 19:19:18;;;;;;;;;;;5.70;99.90;;;;;;5034542;28;19917;-80
2021/03/04 19:21:44;;;;;;;;;;;5.70;99.90;;;;;;5035140;28;20008;-81
2021/03/04 19:24:09;;;;;;;;;;;5.70;99.90;;;;;;5036379;28;20371;-80
2021/03/04 19:26:35;;;;;;;;;;;5.70;99.90;;;;;;5033531;28;19919;-80
2021/03/04 19:29:00;;;;;;;;;;;5.70;99.90;;;;;;5036563;28;20433;-79
2021/03/04 19:31:26;;;;;;;;;;;5.70;99.90;;;;;;5035633;28;19996;-81
2021/03/04 19:33:51;;;;;;;;;;;5.70;99.90;;;;;;5032326;28;19913;-82
2021/03/04 19:36:17;;;;;;;;;;;5.70;99.90;;;;;;5031316;28;19944;-81
2021/03/04 19:38:43;;;;;;;;;;;5.70;99.90;;;;;;5031640;28;19913;-81
2021/03/04 19:41:08;;;;;;;;;;;5.60;99.90;;;;;;5037675;28;19913;-81
2021/03/04 19:43:34;;;;;;;;;;;5.60;99.90;;;;;;5038556;28;19966;-79
2021/03/04 19:45:59;;;;;;;;;;;5.60;99.90;;;;;;5027516;28;19928;-80
2021/03/04 19:48:25;;;;;;;;;;;5.60;99.90;;;;;;5036878;28;19920;-81
2021/03/04 19:50:50;;;;;;;;;;;5.60;99.90;;;;;;5027347;28;19940;-82
2021/03/04 19:53:16;;;;;;;;;;;5.60;99.90;;;;;;5035706;28;19913;-81
2021/03/04 19:55:41;;;;;;;;;;;5.60;99.90;;;;;;5021797;28;19941;-80
2021/03/04 19:58:06;;;;;;;;;;;5.60;99.90;;;;;;5033363;28;20454;-79
2021/03/04 20:00:32;;;;;;;;;;;5.60;99.90;;;;;;5034959;28;19909;-79
2021/03/04 20:02:57;;;;;;;;;;;5.60;99.90;;;;;;5030531;28;20013;-80
2021/03/04 20:05:23;;;;;;;;;;;5.60;99.90;;;;;;5025510;28;20331;-79
2021/03/04 20:07:48;;;;;;;;;;;5.60;99.90;;;;;;5025291;28;19948;-80
2021/03/04 20:10:14;;;;;;;;;;;5.60;99.90;;;;;;5035004;28;19939;-80
2021/03/04 20:12:40;;;;;;;;;;;5.60;99.90;;;;;;5030749;28;22652;-78
2021/03/04 20:15:07;;;;;;;;;;;5.60;99.90;;;;;;5026537;28;19922;-80
2021/03/04 20:17:33;;;;;;;;;;;5.60;99.90;;;;;;5030053;28;19921;-80
2021/03/04 20:19:58;;;;;;;;;;;5.60;99.90;;;;;;5026402;28;19917;-80
2021/03/04 20:22:23;;;;;;;;;;;5.50;99.90;;;;;;5031643;28;19913;-80
2021/03/04 20:24:49;;;;;;;;;;;5.60;99.90;;;;;;5028988;28;19943;-80
2021/03/04 20:27:14;;;;;;;;;;;5.60;99.90;;;;;;5034147;28;19920;-79